Terminal Aerodrome Forecast
Issued by NWS Flagstaff, AZ

Home | Current Version | Previous Version | Text Only | Print | Product List | Glossary On
Versions: 1 2 3 4 5 6 7 8 9 10 11 12 13 14 15
000
FTUS45 KFGZ 051137
TAFFLG
TAF
KFLG 051137Z 0512/0612 VRB04KT P6SM VCSH SCT080 BKN110
      TEMPO 0512/0514 -SHRA BKN080
     FM051500 VRB05KT P6SM SCT080 BKN110
     FM051930 23008KT P6SM VCTS SCT080CB BKN100
      TEMPO 0520/0523 VRB15G25KT 5SM TSRA BKN070CB=

USA.gov is the U.S. government's official web portal to all federal, state and local government web resources and services.